• Join FlightAware (Why Join?)
  • Login
  • US Flag 
11:46PM EDT


 

Airport Tracker/Info


-or-


 

Live Flight TrackerFlight Track Log ✈ UAL4191 ✈ 21-Apr-2013 ✈ KLBB - KIAH

Flight Track Log - Related Links

Times and Time Zones

All times are in EDT time to prevent confusion due to time zone crossing. See the UAL4191 flight status page for this flight to view local times or setup timezone preferences in your user account.

Time Position Orientation Groundspeed Altitude Reporting Facility
EDT Latitude Longitude Course Direction KTS MPH feet Rate Location/Type
07:37AM 33.6606 -101.7906 145° Southeast 170 196 3,900  Level Fort Worth Center
07:38AM 33.6614 -101.7083 89° East 217 250 6,400 2,280 Climbing Fort Worth Center
07:39AM 33.6092 -101.6483 136° Southeast 258 297 9,000 1,680 Climbing Fort Worth Center
07:40AM 33.3404 -101.4570 140° Southeast  Level FlightAware Approximate
07:40AM 33.5025 -101.5311 137° Southeast 334 384 11,200  Level Fort Worth Center
07:41AM 33.2585 -101.3710 136° Southeast  Level FlightAware Approximate
07:41AM 33.4358 -101.4608 139° Southeast 358 412 12,600  Level Fort Worth Center
07:42AM 33.1800 -101.2805 145° Southeast  Level FlightAware Approximate
07:42AM 33.3511 -101.3672 137° Southeast 371 427 14,600  Level Fort Worth Center
07:43AM 33.2783 -101.2944 140° Southeast 371 427 16,100 1,500 Climbing Fort Worth Center
07:44AM 33.1872 -101.2011 139° Southeast 390 449 17,700 1,500 Climbing Fort Worth Center
07:45AM 33.1125 -101.1186 137° Southeast 396 456 19,200 1,500 Climbing Fort Worth Center
07:46AM 33.0172 -101.0231 140° Southeast 401 461 20,800 1,440 Climbing Fort Worth Center
07:47AM 32.9361 -100.9406 140° Southeast 414 476 22,100 1,380 Climbing Fort Worth Center
07:48AM 32.8467 -100.8481 139° Southeast 420 483 23,600 1,500 Climbing Fort Worth Center
07:49AM 32.7556 -100.7531 139° Southeast 425 489 25,200 1,500 Climbing Fort Worth Center
07:50AM 32.6639 -100.6583 139° Southeast 430 495 26,600 1,200 Climbing Fort Worth Center
07:51AM 32.5703 -100.5639 140° Southeast 440 506 27,600 960 Climbing Fort Worth Center
07:52AM 32.4728 -100.4644 139° Southeast 446 513 28,600 900 Climbing Fort Worth Center
07:53AM 32.3728 -100.3625 139° Southeast 463 533 29,500 900 Climbing Fort Worth Center
07:54AM 32.2728 -100.2586 139° Southeast 469 540 30,400 720 Climbing Fort Worth Center
07:55AM 32.1544 -100.1397 140° Southeast 488 562 31,000 300 Climbing Fort Worth Center
07:56AM 32.0483 -100.0311 139° Southeast 502 578 31,000  Level Fort Worth Center
07:57AM 31.9378 -99.9203 140° Southeast 517 595 31,000  Level Fort Worth Center
07:59AM 31.7864 -99.7653 139° Southeast 521 600 31,000  Level Houston Center
08:00AM 31.6753 -99.6536 139° Southeast 525 604 31,000  Level Houston Center
08:01AM 31.5628 -99.5428 140° Southeast 525 604 31,000  Level Houston Center
08:02AM 31.4453 -99.4244 139° Southeast 532 612 31,000  Level Houston Center
08:03AM 31.3319 -99.3128 140° Southeast 531 611 31,000  Level Houston Center
08:04AM 31.2236 -99.2075 140° Southeast 530 610 31,000  Level Houston Center
08:05AM 31.1047 -99.0886 139° Southeast 529 609 31,000  Level Houston Center
08:06AM 30.9919 -98.9792 140° Southeast 525 604 31,000  Level Houston Center
08:07AM 30.8797 -98.8689 140° Southeast 522 601 31,000  Level Houston Center
08:08AM 30.8061 -98.7206 120° Southeast 541 623 31,000  Level Houston Center
08:09AM 30.8011 -98.5464 92° East 538 619 31,000  Level Houston Center
08:10AM 30.8036 -98.3722 89° East 535 616 31,000  Level Houston Center
08:11AM 30.8072 -98.1961 89° East 540 621 31,000  Level Houston Center
08:12AM 30.8106 -97.9906 89° East 541 623 31,000  Level Houston Center
08:13AM 30.8133 -97.8142 89° East 541 623 31,000  Level Houston Center
08:14AM 30.8161 -97.6369 89° East 544 626 31,000  Level Houston Center
08:15AM 30.8175 -97.4603 89° East 544 626 31,000  Level Houston Center
08:16AM 30.8197 -97.2839 89° East 553 636 31,000  Level Houston Center
08:17AM 30.8217 -97.1075 89° East 555 639 31,000 -300 Level Houston Center
08:18AM 30.7939 -96.9356 101° East 539 620 30,400 -1,560 Descending Houston Center
08:19AM 30.7417 -96.7703 110° East 540 621 27,900 -2,760 Descending Houston Center
08:20AM 30.6892 -96.6083 111° Southeast 533 613 24,900 -3,000 Descending Houston Center
08:21AM 30.6411 -96.4506 109° East 518 596 21,900 -3,120 Descending Houston Center
08:22AM 30.6217 -96.3892 110° East 489 563 20,600 -2,760 Descending Houston Center
08:22AM 30.5964 -96.3058 109° East 480 552 19,100 -2,580 Descending Houston Center
08:23AM 30.5761 -96.2439 111° Southeast 453 521 18,000 -2,280 Descending Houston Center
08:23AM 30.5522 -96.1722 111° Southeast 447 514 16,800 -2,340 Descending Houston Center
08:24AM 30.5281 -96.0992 111° Southeast 414 476 15,400 -2,700 Descending Houston Center
08:24AM 30.5069 -96.0350 111° Southeast 410 472 14,100 -2,280 Descending Houston Center
08:25AM 30.4908 -95.9822 109° East 397 457 13,100 -1,500 Descending Houston Center
08:25AM 30.4742 -95.9278 110° East 397 457 12,600 -1,140 Descending Houston Center
08:26AM 30.4467 -95.8614 116° Southeast 381 438 12,000 -1,140 Descending Houston Center
08:26AM 30.4183 -95.8253 132° Southeast 381 438 11,500 -1,380 Descending Houston Center
08:27AM 30.3703 -95.7783 140° Southeast 379 436 10,600 -1,200 Descending Houston Center
08:27AM 30.3411 -95.7450 135° Southeast 376 433 10,300 -600 Descending Houston Center
08:28AM 30.2936 -95.6953 138° Southeast 377 434 10,000 -300 Descending Houston Center
08:28AM 30.2644 -95.6656 139° Southeast 372 428 10,000 -240 Level Houston Center
08:29AM 30.2314 -95.6325 139° Southeast 287 330 9,800 -1,140 Descending Houston Center
08:29AM 30.2039 -95.6028 137° Southeast 295 339 8,900 -1,920 Descending Houston Center
08:30AM 30.1733 -95.5717 139° Southeast 284 327 7,900 -1,920 Descending Houston Center
08:30AM 30.1472 -95.5425 136° Southeast 279 321 7,000 -1,680 Descending Houston Center
08:31AM 30.1175 -95.5106 137° Southeast 263 303 6,200 -1,020 Descending Houston Center
08:31AM 30.1056 -95.4578 105° East 267 307 6,000 -240 Descending Houston Center
08:32AM 30.1056 -95.4253 90° East 282 325 6,000  Level Houston Center
08:32AM 30.1064 -95.3686 89° East 276 318 6,000  Level Houston Center
08:33AM 30.1058 -95.3358 91° East 282 325 6,000 -540 Level Houston Center
08:33AM 30.1061 -95.2783 90° East 279 321 5,500 -1,140 Descending Houston Center
08:34AM 30.1064 -95.2489 89° East 270 311 4,900 -1,680 Descending Houston Center
08:34AM 30.1064 -95.1944 90° East 264 304 3,800 -1,800 Descending Houston Center
08:35AM 30.0967 -95.1678 113° Southeast 242 278 3,100 -1,140 Descending Houston Center
08:35AM 30.0622 -95.1658 177° South 225 259 2,700 -720 Descending Houston Center
08:36AM 30.0433 -95.1817 216° Southwest 197 227 2,400 -1,020 Descending Houston Center
08:36AM 30.0214 -95.2081 226° Southwest 199 229 1,700 -1,080 Descending Houston Center